Rechercher aéroport 
image banner adimage banner adimage banner ad
image banner ad

0CL9 - Sce San Jacinto Valley Service Center

Situé à Romoland, United States

ICAO - 0CL9, IATA -

Données fournies par Airmate  

Information générale

Coordonnées: N33°44'28" W117°9'31"
Élévation : 1482 feet MSL.
Variation magnétique : 14° East
Voir autres Aéroports à California

Données opérationnelles

Special qualification required
Heure actuelle UTC:
Heure actuelle locale:
Météo à : KRIV - March Arb ( 18 km )
METAR: KRIV 262256Z AUTO 31013KT 10SM CLR 32/20 A2991 RMK AO2 SLP114 T03150198
TAF: TAF KRIV 262004Z 2620/2802 32009KT 9999 FEW040 FEW120 SCT150 BKN200 QNH2993INS TS OMTNS NE TEMPO 2621/2702 32012G18KT BECMG 2705/2706 VRB04KT 9999 FEW120 SCT180 QNH2996INS BECMG 2712/2713 VRB04KT 4800 BR FEW003 FEW120 QNH2996INS BECMG 2714/2715 VRB06KT 9999 NSW FEW120 QNH3000INS BECMG 2718/2719 31009KT 9999 FEW120 QNH2998INS TEMPO 2721/2802 32012G18KT TX32/2622Z TN20/2713Z
Voir NOTAMs / SUP AIP / TFR affectant cet aéroport [VIEW]
Fréquences de communication: [VIEW]

Pistes:

Coordonnées de l'aéroport

Adresse: Romoland United States

Vue satellite de 0CL9